sensor_id;sensor_type;location;lat;lon;timestamp;P1;durP1;ratioP1;P2;durP2;ratioP2
14268;SDS011;7218;51.480;7.006;2023-12-07T00:02:00;34.92;;;22.42;;
14268;SDS011;7218;51.480;7.006;2023-12-07T00:04:26;59.47;;;22.42;;
14268;SDS011;7218;51.480;7.006;2023-12-07T00:06:53;62.67;;;22.90;;
14268;SDS011;7218;51.480;7.006;2023-12-07T00:09:19;42.58;;;21.95;;
14268;SDS011;7218;51.480;7.006;2023-12-07T00:11:46;64.53;;;21.92;;
14268;SDS011;7218;51.480;7.006;2023-12-07T00:14:12;62.53;;;22.75;;
14268;SDS011;7218;51.480;7.006;2023-12-07T00:16:39;52.00;;;21.52;;
14268;SDS011;7218;51.480;7.006;2023-12-07T00:19:07;69.18;;;21.67;;
14268;SDS011;7218;51.480;7.006;2023-12-07T00:21:32;55.70;;;22.33;;
14268;SDS011;7218;51.480;7.006;2023-12-07T00:23:59;56.13;;;22.88;;
14268;SDS011;7218;51.480;7.006;2023-12-07T00:26:26;55.40;;;23.40;;
14268;SDS011;7218;51.480;7.006;2023-12-07T00:28:52;60.42;;;22.77;;
14268;SDS011;7218;51.480;7.006;2023-12-07T00:31:19;60.45;;;23.27;;
14268;SDS011;7218;51.480;7.006;2023-12-07T00:33:46;66.28;;;23.60;;
14268;SDS011;7218;51.480;7.006;2023-12-07T00:36:14;55.80;;;23.40;;
14268;SDS011;7218;51.480;7.006;2023-12-07T00:38:41;72.57;;;25.05;;
14268;SDS011;7218;51.480;7.006;2023-12-07T00:41:07;54.47;;;23.75;;
14268;SDS011;7218;51.480;7.006;2023-12-07T00:43:34;65.65;;;23.00;;
14268;SDS011;7218;51.480;7.006;2023-12-07T00:46:00;57.67;;;24.10;;
14268;SDS011;7218;51.480;7.006;2023-12-07T00:48:27;49.80;;;24.63;;
14268;SDS011;7218;51.480;7.006;2023-12-07T00:50:53;55.05;;;24.80;;
14268;SDS011;7218;51.480;7.006;2023-12-07T00:53:21;47.97;;;25.27;;
14268;SDS011;7218;51.480;7.006;2023-12-07T00:55:48;43.65;;;24.40;;
14268;SDS011;7218;51.480;7.006;2023-12-07T00:58:14;53.88;;;25.80;;
14268;SDS011;7218;51.480;7.006;2023-12-07T01:00:41;49.88;;;24.70;;
14268;SDS011;7218;51.480;7.006;2023-12-07T01:03:07;51.28;;;25.90;;
14268;SDS011;7218;51.480;7.006;2023-12-07T01:05:34;51.15;;;25.42;;
14268;SDS011;7218;51.480;7.006;2023-12-07T01:08:00;45.33;;;24.13;;
14268;SDS011;7218;51.480;7.006;2023-12-07T01:10:28;44.72;;;25.13;;
14268;SDS011;7218;51.480;7.006;2023-12-07T01:12:54;46.65;;;25.17;;
14268;SDS011;7218;51.480;7.006;2023-12-07T01:15:21;44.67;;;24.17;;
14268;SDS011;7218;51.480;7.006;2023-12-07T01:17:47;46.40;;;24.98;;
14268;SDS011;7218;51.480;7.006;2023-12-07T01:20:14;39.80;;;24.02;;
14268;SDS011;7218;51.480;7.006;2023-12-07T01:22:42;39.20;;;23.60;;
14268;SDS011;7218;51.480;7.006;2023-12-07T01:25:10;44.42;;;23.60;;
14268;SDS011;7218;51.480;7.006;2023-12-07T01:27:38;52.15;;;23.98;;
14268;SDS011;7218;51.480;7.006;2023-12-07T01:30:05;46.33;;;25.60;;
14268;SDS011;7218;51.480;7.006;2023-12-07T01:32:32;42.90;;;24.45;;
14268;SDS011;7218;51.480;7.006;2023-12-07T01:34:59;51.60;;;24.10;;
14268;SDS011;7218;51.480;7.006;2023-12-07T01:37:25;42.10;;;24.25;;
14268;SDS011;7218;51.480;7.006;2023-12-07T01:39:52;44.58;;;23.92;;
14268;SDS011;7218;51.480;7.006;2023-12-07T01:42:19;47.75;;;24.23;;
14268;SDS011;7218;51.480;7.006;2023-12-07T01:44:46;39.20;;;23.58;;
14268;SDS011;7218;51.480;7.006;2023-12-07T01:47:13;44.47;;;24.95;;
14268;SDS011;7218;51.480;7.006;2023-12-07T01:49:40;47.90;;;25.38;;
14268;SDS011;7218;51.480;7.006;2023-12-07T01:52:07;44.58;;;24.98;;
14268;SDS011;7218;51.480;7.006;2023-12-07T01:54:36;52.30;;;24.42;;
14268;SDS011;7218;51.480;7.006;2023-12-07T01:57:04;62.10;;;24.50;;
14268;SDS011;7218;51.480;7.006;2023-12-07T01:59:30;44.13;;;25.08;;
14268;SDS011;7218;51.480;7.006;2023-12-07T02:01:58;44.00;;;24.25;;
14268;SDS011;7218;51.480;7.006;2023-12-07T02:04:25;55.88;;;25.10;;
14268;SDS011;7218;51.480;7.006;2023-12-07T02:06:52;45.63;;;24.80;;
14268;SDS011;7218;51.480;7.006;2023-12-07T02:09:20;39.85;;;25.20;;
14268;SDS011;7218;51.480;7.006;2023-12-07T02:11:47;53.15;;;25.73;;
14268;SDS011;7218;51.480;7.006;2023-12-07T02:14:13;45.78;;;24.98;;
14268;SDS011;7218;51.480;7.006;2023-12-07T02:16:43;43.83;;;23.92;;
14268;SDS011;7218;51.480;7.006;2023-12-07T02:19:19;48.63;;;25.83;;
14268;SDS011;7218;51.480;7.006;2023-12-07T02:22:02;57.30;;;25.17;;
14268;SDS011;7218;51.480;7.006;2023-12-07T02:24:42;45.65;;;24.58;;
14268;SDS011;7218;51.480;7.006;2023-12-07T02:27:18;46.03;;;26.00;;
14268;SDS011;7218;51.480;7.006;2023-12-07T02:29:59;47.75;;;25.30;;
14268;SDS011;7218;51.480;7.006;2023-12-07T02:32:25;57.17;;;25.55;;
14268;SDS011;7218;51.480;7.006;2023-12-07T02:34:52;88.10;;;26.88;;
14268;SDS011;7218;51.480;7.006;2023-12-07T02:37:18;145.35;;;27.52;;
14268;SDS011;7218;51.480;7.006;2023-12-07T02:39:47;99.53;;;25.55;;
14268;SDS011;7218;51.480;7.006;2023-12-07T02:42:14;76.00;;;25.38;;
14268;SDS011;7218;51.480;7.006;2023-12-07T02:44:44;96.20;;;27.77;;
14268;SDS011;7218;51.480;7.006;2023-12-07T02:47:10;51.15;;;26.45;;
14268;SDS011;7218;51.480;7.006;2023-12-07T02:49:37;116.18;;;26.35;;
14268;SDS011;7218;51.480;7.006;2023-12-07T02:52:03;124.50;;;27.55;;
14268;SDS011;7218;51.480;7.006;2023-12-07T02:54:30;62.42;;;27.92;;
14268;SDS011;7218;51.480;7.006;2023-12-07T02:56:57;67.68;;;26.20;;
14268;SDS011;7218;51.480;7.006;2023-12-07T02:59:23;52.03;;;26.88;;
14268;SDS011;7218;51.480;7.006;2023-12-07T03:01:51;58.38;;;27.17;;
14268;SDS011;7218;51.480;7.006;2023-12-07T03:04:17;59.33;;;26.42;;
14268;SDS011;7218;51.480;7.006;2023-12-07T03:06:44;56.95;;;28.25;;
14268;SDS011;7218;51.480;7.006;2023-12-07T03:09:10;59.33;;;26.65;;
14268;SDS011;7218;51.480;7.006;2023-12-07T03:11:37;60.88;;;27.88;;
14268;SDS011;7218;51.480;7.006;2023-12-07T03:14:02;49.22;;;26.67;;
14268;SDS011;7218;51.480;7.006;2023-12-07T03:16:29;56.58;;;28.63;;
14268;SDS011;7218;51.480;7.006;2023-12-07T03:18:57;60.25;;;28.77;;
14268;SDS011;7218;51.480;7.006;2023-12-07T03:21:23;58.30;;;27.98;;
14268;SDS011;7218;51.480;7.006;2023-12-07T03:23:49;53.72;;;29.05;;
14268;SDS011;7218;51.480;7.006;2023-12-07T03:26:16;51.53;;;26.38;;
14268;SDS011;7218;51.480;7.006;2023-12-07T03:28:42;67.88;;;27.48;;
14268;SDS011;7218;51.480;7.006;2023-12-07T03:31:09;65.45;;;26.23;;
14268;SDS011;7218;51.480;7.006;2023-12-07T03:33:35;57.40;;;26.27;;
14268;SDS011;7218;51.480;7.006;2023-12-07T03:36:05;65.00;;;28.23;;
14268;SDS011;7218;51.480;7.006;2023-12-07T03:38:31;70.63;;;29.67;;
14268;SDS011;7218;51.480;7.006;2023-12-07T03:40:58;60.05;;;28.52;;
14268;SDS011;7218;51.480;7.006;2023-12-07T03:43:24;68.88;;;30.10;;
14268;SDS011;7218;51.480;7.006;2023-12-07T03:45:51;66.78;;;31.15;;
14268;SDS011;7218;51.480;7.006;2023-12-07T03:48:17;57.88;;;29.13;;
14268;SDS011;7218;51.480;7.006;2023-12-07T03:50:43;59.22;;;30.10;;
14268;SDS011;7218;51.480;7.006;2023-12-07T03:53:11;58.92;;;29.95;;
14268;SDS011;7218;51.480;7.006;2023-12-07T03:55:38;59.97;;;29.88;;
14268;SDS011;7218;51.480;7.006;2023-12-07T03:58:04;57.83;;;29.40;;
14268;SDS011;7218;51.480;7.006;2023-12-07T04:00:31;60.67;;;29.90;;
14268;SDS011;7218;51.480;7.006;2023-12-07T04:02:58;55.67;;;29.38;;
14268;SDS011;7218;51.480;7.006;2023-12-07T04:05:24;53.47;;;28.08;;
14268;SDS011;7218;51.480;7.006;2023-12-07T04:07:51;51.47;;;28.15;;
14268;SDS011;7218;51.480;7.006;2023-12-07T04:10:18;46.40;;;24.95;;
14268;SDS011;7218;51.480;7.006;2023-12-07T04:12:45;44.05;;;24.50;;
14268;SDS011;7218;51.480;7.006;2023-12-07T04:15:11;49.42;;;25.63;;
14268;SDS011;7218;51.480;7.006;2023-12-07T04:17:38;41.50;;;22.27;;
14268;SDS011;7218;51.480;7.006;2023-12-07T04:20:04;45.08;;;23.70;;
14268;SDS011;7218;51.480;7.006;2023-12-07T04:22:32;48.25;;;24.50;;
14268;SDS011;7218;51.480;7.006;2023-12-07T04:24:58;45.35;;;24.13;;
14268;SDS011;7218;51.480;7.006;2023-12-07T04:27:26;47.35;;;23.52;;
14268;SDS011;7218;51.480;7.006;2023-12-07T04:29:53;46.40;;;24.02;;
14268;SDS011;7218;51.480;7.006;2023-12-07T04:32:19;42.72;;;23.83;;
14268;SDS011;7218;51.480;7.006;2023-12-07T04:34:45;42.67;;;21.60;;
14268;SDS011;7218;51.480;7.006;2023-12-07T04:37:12;40.97;;;22.23;;
14268;SDS011;7218;51.480;7.006;2023-12-07T04:39:38;41.65;;;23.10;;
14268;SDS011;7218;51.480;7.006;2023-12-07T04:42:05;43.83;;;22.25;;
14268;SDS011;7218;51.480;7.006;2023-12-07T04:44:32;39.95;;;22.35;;
14268;SDS011;7218;51.480;7.006;2023-12-07T04:46:59;42.05;;;22.73;;
14268;SDS011;7218;51.480;7.006;2023-12-07T04:49:26;43.00;;;23.13;;
14268;SDS011;7218;51.480;7.006;2023-12-07T04:51:52;42.78;;;22.85;;
14268;SDS011;7218;51.480;7.006;2023-12-07T04:54:19;41.15;;;22.95;;
14268;SDS011;7218;51.480;7.006;2023-12-07T04:56:45;40.42;;;22.75;;
14268;SDS011;7218;51.480;7.006;2023-12-07T04:59:12;44.70;;;23.55;;
14268;SDS011;7218;51.480;7.006;2023-12-07T05:01:40;42.95;;;23.00;;
14268;SDS011;7218;51.480;7.006;2023-12-07T05:04:07;42.92;;;23.38;;
14268;SDS011;7218;51.480;7.006;2023-12-07T05:06:33;44.05;;;23.70;;
14268;SDS011;7218;51.480;7.006;2023-12-07T05:09:00;40.90;;;22.45;;
14268;SDS011;7218;51.480;7.006;2023-12-07T05:11:27;41.25;;;21.98;;
14268;SDS011;7218;51.480;7.006;2023-12-07T05:13:55;45.15;;;23.77;;
14268;SDS011;7218;51.480;7.006;2023-12-07T05:16:22;40.17;;;23.25;;
14268;SDS011;7218;51.480;7.006;2023-12-07T05:18:50;44.97;;;23.83;;
14268;SDS011;7218;51.480;7.006;2023-12-07T05:21:16;44.30;;;23.35;;
14268;SDS011;7218;51.480;7.006;2023-12-07T05:23:43;40.03;;;23.38;;
14268;SDS011;7218;51.480;7.006;2023-12-07T05:26:09;36.90;;;22.73;;
14268;SDS011;7218;51.480;7.006;2023-12-07T05:28:36;40.00;;;23.85;;
14268;SDS011;7218;51.480;7.006;2023-12-07T05:31:03;42.75;;;23.30;;
14268;SDS011;7218;51.480;7.006;2023-12-07T05:33:29;38.65;;;22.73;;
14268;SDS011;7218;51.480;7.006;2023-12-07T05:35:57;41.00;;;23.90;;
14268;SDS011;7218;51.480;7.006;2023-12-07T05:38:25;37.30;;;23.00;;
14268;SDS011;7218;51.480;7.006;2023-12-07T05:40:51;40.63;;;23.98;;
14268;SDS011;7218;51.480;7.006;2023-12-07T05:43:18;42.75;;;23.92;;
14268;SDS011;7218;51.480;7.006;2023-12-07T05:45:45;37.17;;;23.20;;
14268;SDS011;7218;51.480;7.006;2023-12-07T05:48:11;42.03;;;24.60;;
14268;SDS011;7218;51.480;7.006;2023-12-07T05:50:37;40.55;;;23.15;;
14268;SDS011;7218;51.480;7.006;2023-12-07T05:53:06;40.33;;;23.65;;
14268;SDS011;7218;51.480;7.006;2023-12-07T05:55:32;40.13;;;24.23;;
14268;SDS011;7218;51.480;7.006;2023-12-07T05:57:59;38.95;;;23.75;;
14268;SDS011;7218;51.480;7.006;2023-12-07T06:00:25;39.00;;;25.20;;
14268;SDS011;7218;51.480;7.006;2023-12-07T06:02:52;37.85;;;23.88;;
14268;SDS011;7218;51.480;7.006;2023-12-07T06:05:18;36.83;;;23.10;;
14268;SDS011;7218;51.480;7.006;2023-12-07T06:07:46;42.03;;;23.67;;
14268;SDS011;7218;51.480;7.006;2023-12-07T06:10:13;37.70;;;23.80;;
14268;SDS011;7218;51.480;7.006;2023-12-07T06:12:40;38.05;;;23.98;;
14268;SDS011;7218;51.480;7.006;2023-12-07T06:15:07;39.53;;;22.92;;
14268;SDS011;7218;51.480;7.006;2023-12-07T06:17:35;35.20;;;22.33;;
14268;SDS011;7218;51.480;7.006;2023-12-07T06:20:01;35.20;;;22.52;;
14268;SDS011;7218;51.480;7.006;2023-12-07T06:22:29;36.25;;;22.17;;
14268;SDS011;7218;51.480;7.006;2023-12-07T06:24:55;39.67;;;22.63;;
14268;SDS011;7218;51.480;7.006;2023-12-07T06:27:23;33.28;;;21.92;;
14268;SDS011;7218;51.480;7.006;2023-12-07T06:29:49;35.20;;;22.77;;
14268;SDS011;7218;51.480;7.006;2023-12-07T06:32:16;32.40;;;21.23;;
14268;SDS011;7218;51.480;7.006;2023-12-07T06:34:42;35.75;;;22.58;;
14268;SDS011;7218;51.480;7.006;2023-12-07T06:37:09;33.35;;;21.15;;
14268;SDS011;7218;51.480;7.006;2023-12-07T06:39:36;34.42;;;21.23;;
14268;SDS011;7218;51.480;7.006;2023-12-07T06:42:03;31.80;;;21.27;;
14268;SDS011;7218;51.480;7.006;2023-12-07T06:44:31;32.75;;;22.67;;
14268;SDS011;7218;51.480;7.006;2023-12-07T06:46:58;34.05;;;21.92;;
14268;SDS011;7218;51.480;7.006;2023-12-07T06:49:28;34.75;;;22.10;;
14268;SDS011;7218;51.480;7.006;2023-12-07T06:51:54;34.67;;;21.55;;
14268;SDS011;7218;51.480;7.006;2023-12-07T06:54:21;35.88;;;22.83;;
14268;SDS011;7218;51.480;7.006;2023-12-07T06:56:47;39.35;;;22.83;;
14268;SDS011;7218;51.480;7.006;2023-12-07T06:59:13;37.65;;;21.40;;
14268;SDS011;7218;51.480;7.006;2023-12-07T07:01:42;31.42;;;20.13;;
14268;SDS011;7218;51.480;7.006;2023-12-07T07:04:08;35.17;;;20.92;;
14268;SDS011;7218;51.480;7.006;2023-12-07T07:06:34;35.80;;;21.08;;
14268;SDS011;7218;51.480;7.006;2023-12-07T07:09:01;37.78;;;21.75;;
14268;SDS011;7218;51.480;7.006;2023-12-07T07:11:27;35.60;;;21.30;;
14268;SDS011;7218;51.480;7.006;2023-12-07T07:13:54;35.53;;;21.95;;
14268;SDS011;7218;51.480;7.006;2023-12-07T07:16:20;33.53;;;21.23;;
14268;SDS011;7218;51.480;7.006;2023-12-07T07:18:48;35.25;;;22.67;;
14268;SDS011;7218;51.480;7.006;2023-12-07T07:21:14;35.53;;;22.02;;
14268;SDS011;7218;51.480;7.006;2023-12-07T07:23:41;32.58;;;20.60;;
14268;SDS011;7218;51.480;7.006;2023-12-07T07:26:07;33.80;;;21.17;;
14268;SDS011;7218;51.480;7.006;2023-12-07T07:28:34;34.47;;;21.42;;
14268;SDS011;7218;51.480;7.006;2023-12-07T07:31:01;35.60;;;22.10;;
14268;SDS011;7218;51.480;7.006;2023-12-07T07:33:27;35.97;;;21.90;;
14268;SDS011;7218;51.480;7.006;2023-12-07T07:35:55;38.13;;;23.48;;
14268;SDS011;7218;51.480;7.006;2023-12-07T07:38:22;37.50;;;23.05;;
14268;SDS011;7218;51.480;7.006;2023-12-07T07:40:48;40.17;;;23.70;;
14268;SDS011;7218;51.480;7.006;2023-12-07T07:43:14;37.63;;;22.55;;
14268;SDS011;7218;51.480;7.006;2023-12-07T07:45:41;38.97;;;22.48;;
14268;SDS011;7218;51.480;7.006;2023-12-07T07:48:07;35.65;;;22.48;;
14268;SDS011;7218;51.480;7.006;2023-12-07T07:50:34;37.35;;;22.30;;
14268;SDS011;7218;51.480;7.006;2023-12-07T07:53:02;36.85;;;21.48;;
14268;SDS011;7218;51.480;7.006;2023-12-07T07:55:29;33.70;;;20.50;;
14268;SDS011;7218;51.480;7.006;2023-12-07T07:57:56;34.20;;;21.27;;
14268;SDS011;7218;51.480;7.006;2023-12-07T08:00:22;35.20;;;21.92;;
14268;SDS011;7218;51.480;7.006;2023-12-07T08:02:51;34.00;;;21.02;;
14268;SDS011;7218;51.480;7.006;2023-12-07T08:05:17;36.97;;;21.75;;
14268;SDS011;7218;51.480;7.006;2023-12-07T08:07:44;37.47;;;22.63;;
14268;SDS011;7218;51.480;7.006;2023-12-07T08:10:11;36.50;;;21.98;;
14268;SDS011;7218;51.480;7.006;2023-12-07T08:12:39;35.13;;;21.23;;
14268;SDS011;7218;51.480;7.006;2023-12-07T08:15:06;39.80;;;22.10;;
14268;SDS011;7218;51.480;7.006;2023-12-07T08:17:35;35.85;;;21.60;;
14268;SDS011;7218;51.480;7.006;2023-12-07T08:20:02;38.92;;;21.65;;
14268;SDS011;7218;51.480;7.006;2023-12-07T08:22:31;39.08;;;22.67;;
14268;SDS011;7218;51.480;7.006;2023-12-07T08:24:57;36.63;;;20.70;;
14268;SDS011;7218;51.480;7.006;2023-12-07T08:27:26;39.08;;;21.83;;
14268;SDS011;7218;51.480;7.006;2023-12-07T08:29:52;42.78;;;22.80;;
14268;SDS011;7218;51.480;7.006;2023-12-07T08:32:19;39.67;;;22.55;;
14268;SDS011;7218;51.480;7.006;2023-12-07T08:34:45;40.60;;;22.50;;
14268;SDS011;7218;51.480;7.006;2023-12-07T08:37:12;37.63;;;22.30;;
14268;SDS011;7218;51.480;7.006;2023-12-07T08:39:38;42.00;;;21.83;;
14268;SDS011;7218;51.480;7.006;2023-12-07T08:42:05;37.78;;;21.92;;
14268;SDS011;7218;51.480;7.006;2023-12-07T08:44:33;41.13;;;22.58;;
14268;SDS011;7218;51.480;7.006;2023-12-07T08:46:59;32.30;;;19.67;;
14268;SDS011;7218;51.480;7.006;2023-12-07T08:49:26;37.35;;;21.60;;
14268;SDS011;7218;51.480;7.006;2023-12-07T08:51:53;33.97;;;20.58;;
14268;SDS011;7218;51.480;7.006;2023-12-07T08:54:20;36.95;;;21.63;;
14268;SDS011;7218;51.480;7.006;2023-12-07T08:56:47;33.88;;;20.80;;
14268;SDS011;7218;51.480;7.006;2023-12-07T08:59:14;34.92;;;20.15;;
14268;SDS011;7218;51.480;7.006;2023-12-07T09:01:42;29.85;;;19.05;;
14268;SDS011;7218;51.480;7.006;2023-12-07T09:04:08;29.88;;;17.85;;
14268;SDS011;7218;51.480;7.006;2023-12-07T09:06:35;27.67;;;16.70;;
14268;SDS011;7218;51.480;7.006;2023-12-07T09:09:02;25.73;;;16.42;;
14268;SDS011;7218;51.480;7.006;2023-12-07T09:11:29;28.60;;;17.38;;
14268;SDS011;7218;51.480;7.006;2023-12-07T09:13:56;27.70;;;18.17;;
14268;SDS011;7218;51.480;7.006;2023-12-07T09:16:22;30.25;;;19.25;;
14268;SDS011;7218;51.480;7.006;2023-12-07T09:18:50;25.00;;;15.18;;
14268;SDS011;7218;51.480;7.006;2023-12-07T09:21:17;24.90;;;16.40;;
14268;SDS011;7218;51.480;7.006;2023-12-07T09:23:44;24.10;;;14.27;;
14268;SDS011;7218;51.480;7.006;2023-12-07T09:26:10;19.98;;;14.38;;
14268;SDS011;7218;51.480;7.006;2023-12-07T09:28:37;22.02;;;14.10;;
14268;SDS011;7218;51.480;7.006;2023-12-07T09:31:04;23.58;;;13.80;;
14268;SDS011;7218;51.480;7.006;2023-12-07T09:33:32;23.30;;;14.30;;
14268;SDS011;7218;51.480;7.006;2023-12-07T09:36:00;23.73;;;15.00;;
14268;SDS011;7218;51.480;7.006;2023-12-07T09:38:28;20.23;;;14.45;;
14268;SDS011;7218;51.480;7.006;2023-12-07T09:40:55;21.55;;;14.13;;
14268;SDS011;7218;51.480;7.006;2023-12-07T09:43:21;21.80;;;13.82;;
14268;SDS011;7218;51.480;7.006;2023-12-07T09:45:47;22.90;;;13.75;;
14268;SDS011;7218;51.480;7.006;2023-12-07T09:48:15;18.63;;;12.55;;
14268;SDS011;7218;51.480;7.006;2023-12-07T09:50:42;17.30;;;12.00;;
14268;SDS011;7218;51.480;7.006;2023-12-07T09:53:10;20.45;;;13.00;;
14268;SDS011;7218;51.480;7.006;2023-12-07T09:55:37;18.52;;;12.32;;
14268;SDS011;7218;51.480;7.006;2023-12-07T09:58:03;18.27;;;12.77;;
14268;SDS011;7218;51.480;7.006;2023-12-07T10:00:30;16.40;;;11.73;;
14268;SDS011;7218;51.480;7.006;2023-12-07T10:02:58;20.73;;;12.05;;
14268;SDS011;7218;51.480;7.006;2023-12-07T10:05:24;17.95;;;11.68;;
14268;SDS011;7218;51.480;7.006;2023-12-07T10:07:51;16.60;;;11.70;;
14268;SDS011;7218;51.480;7.006;2023-12-07T10:10:18;20.42;;;12.57;;
14268;SDS011;7218;51.480;7.006;2023-12-07T10:12:46;17.02;;;11.52;;
14268;SDS011;7218;51.480;7.006;2023-12-07T10:15:13;17.48;;;11.88;;
14268;SDS011;7218;51.480;7.006;2023-12-07T10:17:45;15.48;;;11.25;;
14268;SDS011;7218;51.480;7.006;2023-12-07T10:20:13;18.13;;;11.68;;
14268;SDS011;7218;51.480;7.006;2023-12-07T10:22:41;15.15;;;11.05;;
14268;SDS011;7218;51.480;7.006;2023-12-07T10:25:07;16.42;;;11.38;;
14268;SDS011;7218;51.480;7.006;2023-12-07T10:27:37;14.68;;;10.98;;
14268;SDS011;7218;51.480;7.006;2023-12-07T10:30:06;14.32;;;10.50;;
14268;SDS011;7218;51.480;7.006;2023-12-07T10:32:35;12.52;;;9.93;;
14268;SDS011;7218;51.480;7.006;2023-12-07T10:35:02;13.18;;;9.48;;
14268;SDS011;7218;51.480;7.006;2023-12-07T10:37:29;14.93;;;9.73;;
14268;SDS011;7218;51.480;7.006;2023-12-07T10:39:56;13.95;;;10.05;;
14268;SDS011;7218;51.480;7.006;2023-12-07T10:42:23;12.63;;;9.32;;
14268;SDS011;7218;51.480;7.006;2023-12-07T10:44:53;12.57;;;9.40;;
14268;SDS011;7218;51.480;7.006;2023-12-07T10:47:24;11.85;;;8.80;;
14268;SDS011;7218;51.480;7.006;2023-12-07T10:49:52;12.48;;;8.77;;
14268;SDS011;7218;51.480;7.006;2023-12-07T10:52:24;12.82;;;8.80;;
14268;SDS011;7218;51.480;7.006;2023-12-07T10:54:53;11.75;;;8.68;;
14268;SDS011;7218;51.480;7.006;2023-12-07T10:57:29;13.52;;;9.18;;
14268;SDS011;7218;51.480;7.006;2023-12-07T10:59:58;13.10;;;9.20;;
14268;SDS011;7218;51.480;7.006;2023-12-07T11:02:26;11.50;;;8.30;;
14268;SDS011;7218;51.480;7.006;2023-12-07T11:04:54;11.80;;;8.57;;
14268;SDS011;7218;51.480;7.006;2023-12-07T11:07:23;10.90;;;7.97;;
14268;SDS011;7218;51.480;7.006;2023-12-07T11:09:53;9.63;;;7.53;;
14268;SDS011;7218;51.480;7.006;2023-12-07T11:12:28;13.55;;;8.32;;
14268;SDS011;7218;51.480;7.006;2023-12-07T11:15:02;11.05;;;7.85;;
14268;SDS011;7218;51.480;7.006;2023-12-07T11:17:30;10.73;;;7.60;;
14268;SDS011;7218;51.480;7.006;2023-12-07T11:20:18;14.10;;;8.48;;
14268;SDS011;7218;51.480;7.006;2023-12-07T11:22:45;10.52;;;7.75;;
14268;SDS011;7218;51.480;7.006;2023-12-07T11:25:14;12.55;;;8.77;;
14268;SDS011;7218;51.480;7.006;2023-12-07T11:27:43;11.93;;;7.70;;
14268;SDS011;7218;51.480;7.006;2023-12-07T11:30:14;10.68;;;8.05;;
14268;SDS011;7218;51.480;7.006;2023-12-07T11:32:41;10.65;;;8.10;;
14268;SDS011;7218;51.480;7.006;2023-12-07T11:35:11;9.93;;;7.50;;
14268;SDS011;7218;51.480;7.006;2023-12-07T11:40:36;10.40;;;7.57;;
14268;SDS011;7218;51.480;7.006;2023-12-07T11:43:03;8.70;;;7.22;;
14268;SDS011;7218;51.480;7.006;2023-12-07T11:45:38;11.38;;;8.90;;
14268;SDS011;7218;51.480;7.006;2023-12-07T11:48:05;8.23;;;7.38;;
14268;SDS011;7218;51.480;7.006;2023-12-07T11:50:36;10.48;;;7.75;;
14268;SDS011;7218;51.480;7.006;2023-12-07T11:53:02;8.05;;;7.03;;
14268;SDS011;7218;51.480;7.006;2023-12-07T11:55:29;7.93;;;7.00;;
14268;SDS011;7218;51.480;7.006;2023-12-07T11:57:57;9.05;;;7.65;;
14268;SDS011;7218;51.480;7.006;2023-12-07T12:00:24;8.02;;;7.15;;
14268;SDS011;7218;51.480;7.006;2023-12-07T12:02:53;9.32;;;7.32;;
14268;SDS011;7218;51.480;7.006;2023-12-07T12:05:23;7.88;;;7.00;;
14268;SDS011;7218;51.480;7.006;2023-12-07T12:07:54;7.50;;;6.72;;
14268;SDS011;7218;51.480;7.006;2023-12-07T12:10:24;8.65;;;7.40;;
14268;SDS011;7218;51.480;7.006;2023-12-07T12:12:51;10.52;;;7.07;;
14268;SDS011;7218;51.480;7.006;2023-12-07T12:15:19;8.20;;;7.10;;
14268;SDS011;7218;51.480;7.006;2023-12-07T12:17:46;7.65;;;6.95;;
14268;SDS011;7218;51.480;7.006;2023-12-07T12:20:14;8.55;;;6.68;;
14268;SDS011;7218;51.480;7.006;2023-12-07T12:22:42;8.93;;;6.93;;
14268;SDS011;7218;51.480;7.006;2023-12-07T12:25:08;8.85;;;7.03;;
14268;SDS011;7218;51.480;7.006;2023-12-07T12:27:35;6.85;;;6.10;;
14268;SDS011;7218;51.480;7.006;2023-12-07T12:30:03;7.97;;;6.63;;
14268;SDS011;7218;51.480;7.006;2023-12-07T12:32:33;7.70;;;6.85;;
14268;SDS011;7218;51.480;7.006;2023-12-07T12:35:08;8.60;;;6.57;;
14268;SDS011;7218;51.480;7.006;2023-12-07T12:37:36;9.73;;;6.75;;
14268;SDS011;7218;51.480;7.006;2023-12-07T12:40:04;8.85;;;7.03;;
14268;SDS011;7218;51.480;7.006;2023-12-07T12:42:32;6.85;;;6.22;;
14268;SDS011;7218;51.480;7.006;2023-12-07T12:44:59;7.88;;;6.68;;
14268;SDS011;7218;51.480;7.006;2023-12-07T12:47:25;8.68;;;6.80;;
14268;SDS011;7218;51.480;7.006;2023-12-07T12:49:52;8.57;;;6.57;;
14268;SDS011;7218;51.480;7.006;2023-12-07T12:52:18;7.47;;;6.55;;
14268;SDS011;7218;51.480;7.006;2023-12-07T12:54:46;7.20;;;6.50;;
14268;SDS011;7218;51.480;7.006;2023-12-07T12:57:13;8.60;;;7.05;;
14268;SDS011;7218;51.480;7.006;2023-12-07T12:59:40;8.50;;;6.78;;
14268;SDS011;7218;51.480;7.006;2023-12-07T13:02:06;8.75;;;6.57;;
14268;SDS011;7218;51.480;7.006;2023-12-07T13:04:34;8.05;;;6.68;;
14268;SDS011;7218;51.480;7.006;2023-12-07T13:07:00;7.88;;;6.82;;
14268;SDS011;7218;51.480;7.006;2023-12-07T13:09:27;8.38;;;6.55;;
14268;SDS011;7218;51.480;7.006;2023-12-07T13:11:55;8.27;;;6.78;;
14268;SDS011;7218;51.480;7.006;2023-12-07T13:14:21;7.60;;;6.80;;
14268;SDS011;7218;51.480;7.006;2023-12-07T13:16:48;8.48;;;5.82;;
14268;SDS011;7218;51.480;7.006;2023-12-07T13:19:14;7.32;;;6.25;;
14268;SDS011;7218;51.480;7.006;2023-12-07T13:21:41;7.68;;;6.55;;
14268;SDS011;7218;51.480;7.006;2023-12-07T13:24:08;8.60;;;6.93;;
14268;SDS011;7218;51.480;7.006;2023-12-07T13:26:37;7.82;;;6.50;;
14268;SDS011;7218;51.480;7.006;2023-12-07T13:29:05;6.90;;;6.20;;
14268;SDS011;7218;51.480;7.006;2023-12-07T13:31:32;7.32;;;6.40;;
14268;SDS011;7218;51.480;7.006;2023-12-07T13:33:59;6.53;;;5.20;;
14268;SDS011;7218;51.480;7.006;2023-12-07T13:36:26;7.07;;;6.38;;
14268;SDS011;7218;51.480;7.006;2023-12-07T13:38:54;7.03;;;6.30;;
14268;SDS011;7218;51.480;7.006;2023-12-07T13:41:21;7.72;;;6.30;;
14268;SDS011;7218;51.480;7.006;2023-12-07T13:43:48;7.50;;;6.32;;
14268;SDS011;7218;51.480;7.006;2023-12-07T13:46:16;7.82;;;6.13;;
14268;SDS011;7218;51.480;7.006;2023-12-07T13:48:43;8.35;;;5.70;;
14268;SDS011;7218;51.480;7.006;2023-12-07T13:51:10;9.05;;;6.40;;
14268;SDS011;7218;51.480;7.006;2023-12-07T13:53:37;7.50;;;5.93;;
14268;SDS011;7218;51.480;7.006;2023-12-07T13:56:04;8.02;;;6.43;;
14268;SDS011;7218;51.480;7.006;2023-12-07T13:58:32;7.28;;;5.30;;
14268;SDS011;7218;51.480;7.006;2023-12-07T14:01:00;8.63;;;5.82;;
14268;SDS011;7218;51.480;7.006;2023-12-07T14:03:27;9.10;;;6.30;;
14268;SDS011;7218;51.480;7.006;2023-12-07T14:05:54;8.30;;;5.80;;
14268;SDS011;7218;51.480;7.006;2023-12-07T14:08:21;7.30;;;6.07;;
14268;SDS011;7218;51.480;7.006;2023-12-07T14:10:47;8.10;;;5.93;;
14268;SDS011;7218;51.480;7.006;2023-12-07T14:13:14;7.32;;;6.00;;
14268;SDS011;7218;51.480;7.006;2023-12-07T14:15:42;7.97;;;6.15;;
14268;SDS011;7218;51.480;7.006;2023-12-07T14:18:09;7.53;;;6.15;;
14268;SDS011;7218;51.480;7.006;2023-12-07T14:20:37;7.05;;;6.25;;
14268;SDS011;7218;51.480;7.006;2023-12-07T14:23:03;7.57;;;5.82;;
14268;SDS011;7218;51.480;7.006;2023-12-07T14:25:30;9.85;;;6.88;;
14268;SDS011;7218;51.480;7.006;2023-12-07T14:27:57;9.40;;;6.47;;
14268;SDS011;7218;51.480;7.006;2023-12-07T14:30:23;9.18;;;6.05;;
14268;SDS011;7218;51.480;7.006;2023-12-07T14:32:50;7.40;;;6.20;;
14268;SDS011;7218;51.480;7.006;2023-12-07T14:35:17;9.05;;;6.35;;
14268;SDS011;7218;51.480;7.006;2023-12-07T14:37:45;8.75;;;6.40;;
14268;SDS011;7218;51.480;7.006;2023-12-07T14:40:12;9.40;;;6.75;;
14268;SDS011;7218;51.480;7.006;2023-12-07T14:42:41;9.70;;;6.43;;
14268;SDS011;7218;51.480;7.006;2023-12-07T14:45:07;7.93;;;6.38;;